TimeCST,TemperatureF,Dew PointF,Humidity,Sea Level PressureIn,VisibilityMPH,Wind Direction,Wind SpeedMPH,Gust SpeedMPH,PrecipitationIn,Events,Conditions,WindDirDegrees,DateUTC
12:15 AM,1.4,-4.0,78,29.67,10.0,North,11.5,-,N/A,,Overcast,350,2014-01-30 06:15:00
12:35 AM,1.4,-4.0,78,29.68,10.0,North,8.1,-,N/A,,Overcast,350,2014-01-30 06:35:00
12:55 AM,1.4,-4.0,78,29.68,10.0,North,9.2,-,N/A,,Overcast,350,2014-01-30 06:55:00
1:15 AM,1.4,-4.0,78,29.68,10.0,North,10.4,-,N/A,,Overcast,350,2014-01-30 07:15:00
1:35 AM,1.4,-5.8,72,29.68,10.0,NNW,11.5,-,N/A,,Overcast,340,2014-01-30 07:35:00
1:55 AM,-0.4,-5.8,78,29.69,10.0,NNW,11.5,16.1,N/A,,Overcast,340,2014-01-30 07:55:00
2:15 AM,-0.4,-7.6,72,29.70,10.0,NNW,11.5,16.1,N/A,,Scattered Clouds,340,2014-01-30 08:15:00
2:35 AM,-0.4,-7.6,72,29.70,10.0,NNW,9.2,-,N/A,,Clear,340,2014-01-30 08:35:00
2:55 AM,-0.4,-7.6,72,29.71,10.0,NNW,10.4,-,N/A,,Clear,340,2014-01-30 08:55:00
3:15 AM,-0.4,-7.6,72,29.72,10.0,NNW,10.4,-,N/A,,Clear,340,2014-01-30 09:15:00
3:35 AM,-0.4,-7.6,72,29.72,10.0,NNW,9.2,-,N/A,,Clear,340,2014-01-30 09:35:00
3:55 AM,-0.4,-7.6,72,29.73,10.0,NNW,10.4,-,N/A,,Clear,340,2014-01-30 09:55:00
4:15 AM,-0.4,-7.6,72,29.73,10.0,NNW,13.8,-,N/A,,Clear,340,2014-01-30 10:15:00
4:35 AM,-0.4,-7.6,72,29.74,10.0,North,13.8,-,N/A,,Clear,350,2014-01-30 10:35:00
4:55 AM,-0.4,-7.6,72,29.74,10.0,North,12.7,-,N/A,,Clear,350,2014-01-30 10:55:00
5:15 AM,-2.2,-7.6,78,29.75,10.0,North,13.8,18.4,N/A,,Mostly Cloudy,350,2014-01-30 11:15:00
5:35 AM,-2.2,-7.6,78,29.75,10.0,North,15.0,-,N/A,,Scattered Clouds,350,2014-01-30 11:35:00
5:55 AM,-2.2,-7.6,78,29.76,10.0,North,15.0,20.7,N/A,,Partly Cloudy,350,2014-01-30 11:55:00
6:15 AM,-2.2,-7.6,78,29.77,10.0,North,11.5,-,N/A,,Mostly Cloudy,350,2014-01-30 12:15:00
6:35 AM,-2.2,-9.4,71,29.79,8.0,North,12.7,-,N/A,,Overcast,360,2014-01-30 12:35:00
6:55 AM,-2.2,-9.4,71,29.80,10.0,North,16.1,20.7,N/A,,Overcast,360,2014-01-30 12:55:00
7:15 AM,-4.0,-9.4,78,29.81,10.0,North,17.3,23.0,N/A,,Mostly Cloudy,360,2014-01-30 13:15:00
7:35 AM,-4.0,-11.2,71,29.82,8.0,North,17.3,23.0,N/A,,Overcast,360,2014-01-30 13:35:00
7:55 AM,-5.8,-11.2,77,29.83,9.0,North,16.1,24.2,N/A,,Overcast,350,2014-01-30 13:55:00
8:15 AM,-5.8,-9999,N/A,29.84,10.0,North,13.8,20.7,N/A,,Overcast,350,2014-01-30 14:15:00
8:35 AM,-5.8,-9999,N/A,29.85,10.0,North,13.8,-,N/A,,Overcast,360,2014-01-30 14:35:00
8:55 AM,-5.8,-9999,N/A,29.86,10.0,North,12.7,17.3,N/A,,Overcast,360,2014-01-30 14:55:00
9:15 AM,-5.8,-11.2,77,29.87,10.0,NNW,11.5,-,N/A,,Overcast,340,2014-01-30 15:15:00
9:35 AM,-4.0,-11.2,71,29.87,10.0,NNW,11.5,-,N/A,,Overcast,340,2014-01-30 15:35:00
9:55 AM,-4.0,-11.2,71,29.88,10.0,NNW,11.5,-,N/A,,Overcast,340,2014-01-30 15:55:00
10:15 AM,-4.0,-9.4,78,29.88,10.0,NNW,13.8,-,N/A,,Overcast,340,2014-01-30 16:15:00
10:35 AM,-4.0,-9.4,78,29.89,8.0,NNW,13.8,23.0,N/A,,Overcast,340,2014-01-30 16:35:00
10:55 AM,-4.0,-11.2,71,29.90,8.0,North,13.8,-,N/A,,Overcast,350,2014-01-30 16:55:00
11:15 AM,-4.0,-11.2,71,29.91,9.0,NNW,13.8,20.7,N/A,,Overcast,340,2014-01-30 17:15:00
11:35 AM,-4.0,-11.2,71,29.91,7.0,NNW,12.7,-,N/A,,Overcast,340,2014-01-30 17:35:00
11:55 AM,-2.2,-11.2,66,29.92,10.0,NNW,16.1,19.6,N/A,,Overcast,340,2014-01-30 17:55:00
12:15 PM,-2.2,-11.2,66,29.92,10.0,NNW,12.7,-,N/A,,Mostly Cloudy,330,2014-01-30 18:15:00
12:35 PM,-2.2,-11.2,66,29.92,10.0,NNW,13.8,18.4,N/A,,Overcast,340,2014-01-30 18:35:00
12:55 PM,-2.2,-11.2,66,29.91,10.0,NNW,12.7,-,N/A,,Overcast,340,2014-01-30 18:55:00
1:15 PM,-2.2,-11.2,66,29.91,10.0,NNW,12.7,-,N/A,,Mostly Cloudy,340,2014-01-30 19:15:00
1:35 PM,-2.2,-11.2,66,29.91,10.0,NNW,10.4,-,N/A,,Partly Cloudy,340,2014-01-30 19:35:00
1:55 PM,-2.2,-11.2,66,29.91,10.0,North,10.4,-,N/A,,Clear,350,2014-01-30 19:55:00
2:15 PM,-2.2,-11.2,66,29.90,10.0,NNW,10.4,-,N/A,,Clear,340,2014-01-30 20:15:00
2:35 PM,-2.2,-11.2,66,29.90,10.0,NNW,11.5,16.1,N/A,,Clear,330,2014-01-30 20:35:00
2:55 PM,-0.4,-11.2,60,29.91,10.0,NW,15.0,20.7,N/A,,Clear,320,2014-01-30 20:55:00
3:15 PM,-0.4,-11.2,60,29.91,10.0,NW,12.7,-,N/A,,Partly Cloudy,320,2014-01-30 21:15:00
3:35 PM,-0.4,-11.2,60,29.91,10.0,NW,11.5,-,N/A,,Partly Cloudy,310,2014-01-30 21:35:00
3:55 PM,-0.4,-11.2,60,29.91,10.0,NW,10.4,-,N/A,,Clear,320,2014-01-30 21:55:00
4:15 PM,-2.2,-11.2,66,29.92,10.0,NW,8.1,-,N/A,,Clear,320,2014-01-30 22:15:00
4:35 PM,-2.2,-11.2,66,29.92,10.0,NW,6.9,-,N/A,,Scattered Clouds,320,2014-01-30 22:35:00
4:55 PM,-2.2,-11.2,66,29.92,10.0,WNW,5.8,-,N/A,,Mostly Cloudy,300,2014-01-30 22:55:00
5:15 PM,-2.2,-9.4,71,29.92,4.0,WNW,5.8,-,N/A,Snow,Light Snow,290,2014-01-30 23:15:00
5:35 PM,-2.2,-11.2,66,29.93,9.0,WNW,11.5,-,N/A,,Mostly Cloudy,290,2014-01-30 23:35:00
5:55 PM,-4.0,-9999,N/A,29.93,10.0,WNW,11.5,-,N/A,,Partly Cloudy,300,2014-01-30 23:55:00
6:15 PM,-4.0,-9999,N/A,29.93,10.0,WNW,10.4,-,N/A,,Mostly Cloudy,290,2014-01-31 00:15:00
6:35 PM,-2.2,-11.2,66,29.93,10.0,WNW,10.4,-,N/A,,Overcast,290,2014-01-31 00:35:00
6:55 PM,-2.2,-11.2,66,29.93,10.0,WNW,9.2,-,N/A,,Overcast,290,2014-01-31 00:55:00
7:15 PM,-2.2,-11.2,66,29.93,10.0,West,6.9,-,N/A,,Overcast,260,2014-01-31 01:15:00
7:35 PM,-2.2,-11.2,66,29.92,10.0,West,9.2,-,N/A,,Overcast,270,2014-01-31 01:35:00
7:55 PM,-2.2,-11.2,66,29.92,10.0,West,6.9,-,N/A,,Overcast,260,2014-01-31 01:55:00
8:15 PM,-2.2,-11.2,66,29.92,10.0,WNW,6.9,-,N/A,,Overcast,290,2014-01-31 02:15:00
8:35 PM,-2.2,-9.4,71,29.93,10.0,West,12.7,-,N/A,,Overcast,280,2014-01-31 02:35:00
8:55 PM,-2.2,-9.4,71,29.93,10.0,WNW,11.5,-,N/A,,Overcast,290,2014-01-31 02:55:00
9:15 PM,-2.2,-9.4,71,29.93,10.0,West,10.4,-,N/A,,Overcast,270,2014-01-31 03:15:00
9:35 PM,-2.2,-11.2,66,29.94,10.0,West,10.4,-,N/A,,Mostly Cloudy,280,2014-01-31 03:35:00
9:55 PM,-4.0,-11.2,71,29.94,10.0,WNW,12.7,-,N/A,,Partly Cloudy,290,2014-01-31 03:55:00
10:15 PM,-4.0,-9999,N/A,29.94,10.0,WNW,15.0,-,N/A,,Clear,290,2014-01-31 04:15:00
10:35 PM,-4.0,-9999,N/A,29.95,10.0,West,12.7,18.4,N/A,,Clear,270,2014-01-31 04:35:00
10:55 PM,-4.0,-11.2,71,29.94,10.0,West,15.0,-,N/A,,Clear,280,2014-01-31 04:55:00
11:15 PM,-4.0,-13.0,65,29.95,10.0,West,13.8,-,N/A,,Clear,270,2014-01-31 05:15:00
11:35 PM,-4.0,-13.0,65,29.95,10.0,West,12.7,-,N/A,,Clear,270,2014-01-31 05:35:00
11:55 PM,-5.8,-13.0,71,29.95,10.0,West,10.4,-,N/A,,Clear,270,2014-01-31 05:55:00